Time;durP1;ratioP1;P1;durP2;ratioP2;P2;SDS_P1;SDS_P2;PMS_P1;PMS_P2;Temp;Humidity;BMP_temperature;BMP_pressure;BME280_temperature;BME280_humidity;BME280_pressure;Samples;Min_cycle;Max_cycle;Signal;HPM_P1;HPM_P2
2023/06/29 00:00:13;;;;;;;18.27;16.17;;;;;;;19.41;100.00;101492.34;5008360;28;20577;-60
2023/06/29 00:02:39;;;;;;;20.33;16.60;;;;;;;19.40;100.00;101497.59;5008516;28;20025;-59
2023/06/29 00:05:05;;;;;;;18.02;16.13;;;;;;;19.38;100.00;101492.34;5008289;28;20101;-61
2023/06/29 00:07:33;;;;;;;19.30;16.75;;;;;;;19.38;100.00;101497.59;5008404;28;20473;-60
2023/06/29 00:09:58;;;;;;;19.45;17.42;;;;;;;19.36;100.00;101490.56;5008097;28;20055;-59
2023/06/29 00:12:23;;;;;;;18.70;16.77;;;;;;;19.34;100.00;101484.44;5007674;28;20029;-60
2023/06/29 00:14:48;;;;;;;18.55;16.27;;;;;;;19.32;100.00;101479.16;5008033;28;20038;-61
2023/06/29 00:17:15;;;;;;;19.63;17.42;;;;;;;19.32;100.00;101481.78;5008317;28;20032;-60
2023/06/29 00:19:41;;;;;;;19.35;17.35;;;;;;;19.29;100.00;101468.63;5007806;28;20141;-60
2023/06/29 00:22:08;;;;;;;19.70;17.63;;;;;;;19.26;100.00;101474.78;5007661;28;20476;-61
2023/06/29 00:24:42;;;;;;;20.65;17.55;;;;;;;19.24;100.00;101470.38;5008291;28;20120;-60
2023/06/29 00:27:09;;;;;;;18.45;16.55;;;;;;;19.22;100.00;101472.09;5008015;28;20049;-61
2023/06/29 00:29:35;;;;;;;19.75;17.75;;;;;;;19.18;100.00;101461.59;5008228;28;20049;-60
2023/06/29 00:32:01;;;;;;;22.55;17.55;;;;;;;19.19;100.00;101465.09;5007132;28;20185;-60
2023/06/29 00:34:26;;;;;;;19.75;17.70;;;;;;;19.19;100.00;101460.69;5007765;28;20072;-59
2023/06/29 00:36:51;;;;;;;20.40;18.33;;;;;;;19.17;100.00;101465.09;5007405;28;20025;-59
2023/06/29 00:39:16;;;;;;;20.65;17.60;;;;;;;19.17;100.00;101467.72;5008089;28;20485;-60
2023/06/29 00:41:42;;;;;;;20.23;17.60;;;;;;;19.14;100.00;101459.81;5007781;28;20072;-60
2023/06/29 00:44:08;;;;;;;18.20;16.52;;;;;;;19.13;100.00;101458.06;5007887;28;20032;-60
2023/06/29 00:46:33;;;;;;;17.80;16.00;;;;;;;19.12;100.00;101458.94;5007532;28;20554;-60
2023/06/29 00:48:58;;;;;;;20.15;17.13;;;;;;;19.12;100.00;101461.56;5006329;28;20507;-60
2023/06/29 00:51:24;;;;;;;19.77;17.02;;;;;;;19.11;100.00;101458.88;5006987;28;20065;-59
2023/06/29 00:53:49;;;;;;;20.67;17.13;;;;;;;19.10;100.00;101460.63;5007463;28;20482;-60
2023/06/29 00:56:14;;;;;;;18.02;16.10;;;;;;;19.09;100.00;101450.97;5007226;28;20104;-60
2023/06/29 00:58:40;;;;;;;18.15;16.50;;;;;;;19.10;100.00;101458.00;5007073;28;20030;-60
2023/06/29 01:01:05;;;;;;;17.85;15.98;;;;;;;19.11;100.00;101453.63;5007659;28;20068;-60
2023/06/29 01:03:31;;;;;;;19.10;17.05;;;;;;;19.11;100.00;101449.25;5006023;28;20042;-59
2023/06/29 01:06:04;;;;;;;23.05;17.92;;;;;;;19.12;100.00;101447.53;5007579;28;20050;-59
2023/06/29 01:08:36;;;;;;;21.00;18.63;;;;;;;19.13;100.00;101442.28;5007286;28;20029;-61
2023/06/29 01:11:03;;;;;;;18.63;16.88;;;;;;;19.12;100.00;101437.94;5007314;28;20026;-59
2023/06/29 01:13:31;;;;;;;18.40;16.45;;;;;;;19.13;100.00;101430.91;5006944;28;20041;-60
2023/06/29 01:15:57;;;;;;;19.42;17.52;;;;;;;19.13;100.00;101437.03;5006974;28;20442;-60
2023/06/29 01:18:24;;;;;;;20.60;17.77;;;;;;;19.12;100.00;101437.03;5007388;28;20025;-60
2023/06/29 01:20:50;;;;;;;19.73;17.63;;;;;;;19.13;100.00;101434.41;4994745;28;20017;-60
2023/06/29 01:23:26;;;;;;;20.27;18.08;;;;;;;19.14;100.00;101433.53;5007011;28;20041;-60
2023/06/29 01:25:54;;;;;;;19.08;17.17;;;;;;;19.15;100.00;101435.31;5007220;28;20022;-59
2023/06/29 01:28:19;;;;;;;20.17;18.08;;;;;;;19.15;100.00;101429.16;4994112;28;20024;-60
2023/06/29 01:30:48;;;;;;;19.92;17.80;;;;;;;19.15;100.00;101429.16;5006966;28;20029;-59
2023/06/29 01:33:15;;;;;;;21.58;17.67;;;;;;;19.13;100.00;101431.78;5007624;28;20024;-61
2023/06/29 01:35:40;;;;;;;21.92;19.70;;;;;;;19.13;100.00;101431.78;5006671;28;20026;-61
2023/06/29 01:38:11;;;;;;;20.77;18.52;;;;;;;19.12;100.00;101429.16;5007433;28;20068;-60
2023/06/29 01:40:40;;;;;;;22.17;19.58;;;;;;;19.11;100.00;101424.72;5006423;28;20381;-60
2023/06/29 01:43:05;;;;;;;21.95;19.67;;;;;;;19.09;100.00;101422.09;4990176;28;20100;-60
2023/06/29 01:45:33;;;;;;;21.38;19.27;;;;;;;19.09;100.00;101424.72;5006807;28;20038;-60
2023/06/29 01:48:00;;;;;;;22.77;19.27;;;;;;;19.07;100.00;101419.47;5007146;28;20062;-60
2023/06/29 01:50:26;;;;;;;21.00;18.77;;;;;;;19.06;100.00;101411.59;5006828;28;20342;-59
2023/06/29 01:52:51;;;;;;;21.75;19.27;;;;;;;19.06;100.00;101414.22;5006850;28;20029;-61
2023/06/29 01:55:17;;;;;;;21.58;19.40;;;;;;;19.06;100.00;101414.22;5006525;28;20556;-59
2023/06/29 01:57:42;;;;;;;21.48;19.30;;;;;;;19.05;100.00;101420.34;5007077;28;20021;-60
2023/06/29 02:00:08;;;;;;;21.73;19.50;;;;;;;19.06;100.00;101422.09;5006370;28;20049;-60
2023/06/29 02:02:34;;;;;;;21.42;18.92;;;;;;;19.05;100.00;101415.09;5007142;28;20465;-59
2023/06/29 02:05:00;;;;;;;22.75;20.23;;;;;;;19.05;100.00;101409.84;5006636;28;20071;-60
2023/06/29 02:07:25;;;;;;;22.30;19.38;;;;;;;19.04;100.00;101400.19;5007333;28;20018;-60
2023/06/29 02:09:51;;;;;;;21.63;19.35;;;;;;;19.04;100.00;101408.06;5006526;28;20030;-61
2023/06/29 02:12:17;;;;;;;23.85;19.85;;;;;;;19.03;100.00;101401.94;5006667;28;20022;-60
2023/06/29 02:14:42;;;;;;;21.02;18.92;;;;;;;19.04;100.00;101406.31;5009294;28;20038;-61
2023/06/29 02:17:08;;;;;;;21.52;18.50;;;;;;;19.04;100.00;101402.81;5010144;28;20385;-61
2023/06/29 02:19:33;;;;;;;20.83;18.42;;;;;;;19.04;100.00;101408.94;5010172;28;20041;-59
2023/06/29 02:21:58;;;;;;;19.95;17.92;;;;;;;19.03;100.00;101403.69;5009959;28;20041;-60
2023/06/29 02:24:24;;;;;;;20.73;18.63;;;;;;;19.03;100.00;101396.66;5010578;28;20037;-61
2023/06/29 02:26:49;;;;;;;19.75;17.63;;;;;;;19.02;100.00;101396.66;5009764;28;20548;-60
2023/06/29 02:29:14;;;;;;;19.88;17.83;;;;;;;19.02;100.00;101397.56;5010074;28;20030;-60
2023/06/29 02:31:40;;;;;;;21.23;18.95;;;;;;;19.01;100.00;101392.31;5009757;28;20033;-59
2023/06/29 02:34:05;;;;;;;20.17;18.10;;;;;;;19.01;100.00;101390.56;5010042;28;20041;-61
2023/06/29 02:36:30;;;;;;;21.45;19.25;;;;;;;19.00;100.00;101393.16;5009532;28;20378;-61
2023/06/29 02:38:56;;;;;;;22.52;19.92;;;;;;;19.01;100.00;101390.56;5009766;28;20052;-60
2023/06/29 02:41:21;;;;;;;21.25;18.95;;;;;;;19.00;100.00;101395.78;5009832;28;20095;-59
2023/06/29 02:43:47;;;;;;;24.67;19.48;;;;;;;19.00;100.00;101383.53;5009957;28;20014;-59
2023/06/29 02:46:12;;;;;;;21.40;19.10;;;;;;;19.00;100.00;101387.91;5009367;28;20069;-61
2023/06/29 02:48:37;;;;;;;23.55;19.67;;;;;;;19.00;100.00;101386.16;5009814;28;20022;-60
2023/06/29 02:51:03;;;;;;;22.00;19.67;;;;;;;18.99;100.00;101375.66;5009536;28;20061;-59
2023/06/29 02:53:28;;;;;;;23.38;20.88;;;;;;;18.98;100.00;101373.91;5009944;28;20029;-60
2023/06/29 02:55:53;;;;;;;21.65;19.35;;;;;;;18.94;100.00;101368.63;5009553;28;20364;-60
2023/06/29 02:58:18;;;;;;;21.10;18.80;;;;;;;18.94;100.00;101373.88;5009414;28;20034;-60
2023/06/29 03:00:44;;;;;;;22.17;19.08;;;;;;;18.94;100.00;101373.88;5008971;28;20053;-60
2023/06/29 03:03:09;;;;;;;25.58;21.33;;;;;;;18.96;100.00;101373.88;5009421;28;20025;-60
2023/06/29 03:05:34;;;;;;;25.10;19.65;;;;;;;18.96;100.00;101374.75;5009585;28;20524;-60
2023/06/29 03:07:59;;;;;;;22.92;20.35;;;;;;;18.95;100.00;101377.38;5009349;28;20034;-59
2023/06/29 03:10:25;;;;;;;21.67;19.48;;;;;;;18.93;100.00;101374.75;5008602;28;20480;-60
2023/06/29 03:12:50;;;;;;;22.05;19.77;;;;;;;18.94;100.00;101378.25;5009463;28;20022;-60
2023/06/29 03:15:15;;;;;;;22.17;19.77;;;;;;;18.93;100.00;101371.25;5009157;28;20034;-60
2023/06/29 03:17:41;;;;;;;22.55;20.13;;;;;;;18.90;100.00;101369.50;5008634;28;20220;-59
2023/06/29 03:20:06;;;;;;;22.13;19.75;;;;;;;18.90;100.00;101371.22;5008772;28;20071;-61
2023/06/29 03:22:33;;;;;;;22.98;20.48;;;;;;;18.88;100.00;101373.84;5009034;28;20024;-60
2023/06/29 03:24:58;;;;;;;25.05;22.48;;;;;;;18.89;100.00;101370.34;5007534;28;20025;-59
2023/06/29 03:27:23;;;;;;;23.65;21.23;;;;;;;18.89;100.00;101370.34;5007273;28;20353;-61
2023/06/29 03:29:51;;;;;;;25.85;21.33;;;;;;;18.90;100.00;101365.97;5007699;28;20094;-59
2023/06/29 03:32:16;;;;;;;23.00;20.70;;;;;;;18.89;100.00;101359.84;5006421;28;20029;-60
2023/06/29 03:34:41;;;;;;;29.33;22.42;;;;;;;18.90;100.00;101372.13;5006100;28;20026;-58
2023/06/29 03:37:07;;;;;;;23.63;21.15;;;;;;;18.90;100.00;101360.72;5006985;28;20616;-58
2023/06/29 03:39:32;;;;;;;24.02;21.50;;;;;;;18.90;100.00;101364.25;5006141;28;20026;-59
2023/06/29 03:41:57;;;;;;;26.08;23.33;;;;;;;18.91;100.00;101360.72;5007077;28;20076;-61
2023/06/29 03:44:24;;;;;;;24.98;21.58;;;;;;;18.92;100.00;101353.75;5008250;28;20038;-59
2023/06/29 03:46:49;;;;;;;25.02;22.42;;;;;;;18.91;100.00;101358.09;5008705;28;20109;-59
2023/06/29 03:49:14;;;;;;;28.98;22.70;;;;;;;18.92;100.00;101362.50;5008397;28;20140;-60
2023/06/29 03:51:39;;;;;;;24.42;21.85;;;;;;;18.91;100.00;101358.09;5008828;28;20018;-61
2023/06/29 03:54:05;;;;;;;25.77;21.45;;;;;;;18.91;100.00;101363.34;5007472;28;20021;-60
2023/06/29 03:56:31;;;;;;;26.17;22.23;;;;;;;18.90;100.00;101361.63;5008897;28;20076;-60
2023/06/29 03:58:56;;;;;;;23.65;21.00;;;;;;;18.92;100.00;101351.13;5008804;28;20441;-59
2023/06/29 04:01:22;;;;;;;27.20;22.85;;;;;;;18.92;100.00;101356.38;5008561;28;20132;-59
2023/06/29 04:03:47;;;;;;;22.60;19.75;;;;;;;18.91;100.00;101351.97;5008500;28;20022;-60
2023/06/29 04:06:13;;;;;;;25.33;21.25;;;;;;;18.94;100.00;101350.25;5008111;28;20022;-60
2023/06/29 04:08:38;;;;;;;23.08;20.67;;;;;;;18.96;100.00;101350.25;5008154;28;20105;-60
2023/06/29 04:11:03;;;;;;;27.35;21.50;;;;;;;18.95;100.00;101344.13;5008752;28;20083;-60
2023/06/29 04:13:29;;;;;;;22.80;19.55;;;;;;;18.98;100.00;101347.66;5008595;28;20026;-60
2023/06/29 04:15:54;;;;;;;21.58;19.30;;;;;;;18.96;100.00;101340.63;5008804;28;20076;-59
2023/06/29 04:18:19;;;;;;;22.13;19.77;;;;;;;18.98;100.00;101340.63;5007856;28;20030;-61
2023/06/29 04:20:44;;;;;;;23.23;20.73;;;;;;;18.98;100.00;101334.53;5008842;28;20010;-60
2023/06/29 04:23:14;;;;;;;24.52;20.83;;;;;;;19.00;100.00;101336.28;5008475;28;20492;-58
2023/06/29 04:25:42;;;;;;;22.97;19.83;;;;;;;19.01;100.00;101337.16;5007956;28;20030;-59
2023/06/29 04:28:08;;;;;;;21.42;19.23;;;;;;;19.00;100.00;101336.28;5008216;28;20041;-61
2023/06/29 04:30:36;;;;;;;24.33;20.92;;;;;;;19.01;100.00;101338.03;5007639;28;20032;-60
2023/06/29 04:33:09;;;;;;;25.00;19.35;;;;;;;19.02;100.00;101338.91;5007455;28;20052;-60
2023/06/29 04:35:41;;;;;;;24.65;20.08;;;;;;;19.03;100.00;101335.41;5008293;28;20017;-60
2023/06/29 04:38:10;;;;;;;23.88;20.65;;;;;;;19.06;100.00;101335.44;4990210;28;20101;-59
2023/06/29 04:40:36;;;;;;;23.08;20.00;;;;;;;19.09;100.00;101340.69;5007950;28;20025;-60
2023/06/29 04:43:02;;;;;;;23.13;20.70;;;;;;;19.11;100.00;101338.06;5007327;28;20025;-59
2023/06/29 04:45:28;;;;;;;22.98;19.65;;;;;;;19.11;100.00;101338.94;5008352;28;20040;-60
2023/06/29 04:47:54;;;;;;;23.67;21.17;;;;;;;19.11;100.00;101333.69;5007335;28;20560;-61
2023/06/29 04:50:25;;;;;;;23.38;19.92;;;;;;;19.11;100.00;101331.06;5007684;28;20213;-60
2023/06/29 04:52:55;;;;;;;24.80;19.70;;;;;;;19.12;100.00;101329.34;5006911;28;20585;-59
2023/06/29 04:55:22;;;;;;;22.30;20.02;;;;;;;19.14;100.00;101330.25;5007777;28;20025;-60
2023/06/29 04:57:47;;;;;;;24.95;19.85;;;;;;;19.15;100.00;101330.25;5007673;28;20057;-59
2023/06/29 05:00:14;;;;;;;21.45;19.13;;;;;;;19.16;100.00;101334.63;5007362;28;20137;-60
2023/06/29 05:02:40;;;;;;;22.10;19.42;;;;;;;19.19;100.00;101332.00;5007416;28;20025;-60
2023/06/29 05:05:06;;;;;;;25.50;20.15;;;;;;;19.22;100.00;101331.16;5007274;28;20022;-60
2023/06/29 05:07:34;;;;;;;22.83;19.00;;;;;;;19.24;100.00;101339.91;5007864;28;20056;-61
2023/06/29 05:09:59;;;;;;;28.27;21.50;;;;;;;19.25;100.00;101331.16;5006540;28;20080;-61
2023/06/29 05:12:25;;;;;;;22.90;20.30;;;;;;;19.28;100.00;101330.28;5007737;28;20022;-60
2023/06/29 05:14:50;;;;;;;24.45;20.30;;;;;;;19.30;100.00;101328.56;5007968;28;20458;-60
2023/06/29 05:17:17;;;;;;;25.02;21.02;;;;;;;19.31;100.00;101331.19;5007832;28;20704;-59
2023/06/29 05:19:42;;;;;;;23.98;20.88;;;;;;;19.34;100.00;101332.06;5007890;28;20109;-59
2023/06/29 05:22:08;;;;;;;23.88;20.67;;;;;;;19.35;100.00;101334.69;5007413;28;20116;-61
2023/06/29 05:24:33;;;;;;;22.75;20.40;;;;;;;19.38;100.00;101331.19;5007466;28;20025;-60
2023/06/29 05:26:58;;;;;;;23.20;20.70;;;;;;;19.37;100.00;101329.44;5007154;28;20025;-60
2023/06/29 05:29:24;;;;;;;22.13;19.73;;;;;;;19.37;100.00;101325.06;5006948;28;20040;-60
2023/06/29 05:31:49;;;;;;;24.50;20.75;;;;;;;19.38;100.00;101326.81;5007209;28;20418;-60
2023/06/29 05:34:15;;;;;;;23.38;20.73;;;;;;;19.37;100.00;101325.06;5007342;28;20791;-60
2023/06/29 05:36:40;;;;;;;27.10;22.38;;;;;;;19.37;100.00;101324.19;5007028;28;20030;-58
2023/06/29 05:39:06;;;;;;;24.33;21.70;;;;;;;19.38;100.00;101318.94;5007163;28;20033;-60
2023/06/29 05:41:32;;;;;;;27.90;21.98;;;;;;;19.39;100.00;101317.19;5006844;28;20033;-59
2023/06/29 05:43:57;;;;;;;24.83;21.50;;;;;;;19.41;100.00;101324.19;5006984;28;20034;-60
2023/06/29 05:46:22;;;;;;;28.42;21.40;;;;;;;19.41;100.00;101329.44;5007179;28;20017;-59
2023/06/29 05:48:49;;;;;;;27.92;21.63;;;;;;;19.41;100.00;101316.31;5007106;28;20034;-60
2023/06/29 05:51:14;;;;;;;25.90;21.08;;;;;;;19.47;100.00;101319.81;5021021;28;20032;-61
2023/06/29 05:53:40;;;;;;;26.13;21.13;;;;;;;19.50;100.00;101315.44;5020116;28;20473;-61
2023/06/29 05:56:05;;;;;;;27.48;21.77;;;;;;;19.54;100.00;101321.59;5015681;28;20483;-60
2023/06/29 05:58:30;;;;;;;25.45;22.73;;;;;;;19.58;100.00;101318.09;5013417;28;20033;-60
2023/06/29 06:00:55;;;;;;;24.85;21.38;;;;;;;19.59;100.00;101317.22;5018568;28;20794;-60
2023/06/29 06:03:22;;;;;;;26.08;20.98;;;;;;;19.60;100.00;101316.38;5015434;28;20033;-61
2023/06/29 06:05:47;;;;;;;26.65;21.15;;;;;;;19.61;100.00;101310.22;5016743;28;20473;-60
2023/06/29 06:08:13;;;;;;;27.73;21.33;;;;;;;19.60;100.00;101311.09;5015494;28;20029;-60
2023/06/29 06:10:38;;;;;;;25.17;20.02;;;;;;;19.58;100.00;101307.59;5011611;28;20045;-60
2023/06/29 06:13:04;;;;;;;23.40;20.70;;;;;;;19.61;100.00;101312.84;5013403;28;20072;-60
2023/06/29 06:15:29;;;;;;;21.98;19.65;;;;;;;19.65;100.00;101319.88;5013390;28;20036;-60
2023/06/29 06:17:55;;;;;;;22.30;19.85;;;;;;;19.68;100.00;101317.25;5021571;28;20283;-59
2023/06/29 06:20:20;;;;;;;22.55;20.20;;;;;;;19.72;100.00;101319.88;5020932;28;20092;-60
2023/06/29 06:22:46;;;;;;;22.65;20.30;;;;;;;19.76;100.00;101313.75;5016876;28;20022;-59
2023/06/29 06:25:11;;;;;;;21.40;18.35;;;;;;;19.79;100.00;101319.00;5022939;28;20030;-60
2023/06/29 06:27:36;;;;;;;24.30;20.08;;;;;;;19.83;100.00;101318.13;5017956;28;20080;-60
2023/06/29 06:30:04;;;;;;;19.02;17.02;;;;;;;19.87;100.00;101313.75;5023912;28;20057;-59
2023/06/29 06:32:29;;;;;;;19.90;17.80;;;;;;;19.91;100.00;101310.25;5018213;28;20606;-59
2023/06/29 06:34:55;;;;;;;21.65;19.23;;;;;;;19.91;100.00;101311.13;5019252;28;20030;-60
2023/06/29 06:37:20;;;;;;;23.15;17.98;;;;;;;19.97;100.00;101310.25;5010060;28;20033;-60
2023/06/29 06:39:46;;;;;;;22.23;18.48;;;;;;;20.00;100.00;101306.75;5019002;28;20037;-58
2023/06/29 06:42:11;;;;;;;20.58;18.38;;;;;;;20.00;100.00;101304.97;4992531;28;20017;-59
2023/06/29 06:44:49;;;;;;;20.45;17.40;;;;;;;20.04;100.00;101306.75;5021621;28;20547;-58
2023/06/29 06:47:14;;;;;;;20.65;18.45;;;;;;;20.07;100.00;101316.44;5008801;28;20405;-58
2023/06/29 06:49:40;;;;;;;20.38;18.23;;;;;;;20.09;100.00;101311.16;5009244;28;20078;-61
2023/06/29 06:52:06;;;;;;;21.73;18.23;;;;;;;20.12;100.00;101309.41;5009629;28;20034;-60
2023/06/29 06:54:31;;;;;;;22.45;17.95;;;;;;;20.14;100.00;101307.66;5009290;28;20401;-61
2023/06/29 06:56:56;;;;;;;22.35;18.52;;;;;;;20.18;100.00;101311.16;5009309;28;20068;-60
2023/06/29 06:59:21;;;;;;;18.92;16.95;;;;;;;20.20;100.00;101306.75;5009088;28;20046;-60
2023/06/29 07:01:47;;;;;;;19.85;17.83;;;;;;;20.26;100.00;101305.88;5008045;28;20022;-60
2023/06/29 07:04:12;;;;;;;20.00;17.67;;;;;;;20.35;100.00;101308.50;5009538;28;20025;-60
2023/06/29 07:06:37;;;;;;;20.23;16.70;;;;;;;20.50;100.00;101304.09;5009245;28;20022;-61
2023/06/29 07:09:03;;;;;;;18.88;16.88;;;;;;;20.68;100.00;101302.28;5010154;28;20466;-60
2023/06/29 07:11:29;;;;;;;20.33;17.52;;;;;;;20.88;100.00;101296.97;5009844;28;20084;-61
2023/06/29 07:13:54;;;;;;;19.30;16.67;;;;;;;21.11;100.00;101302.16;5009631;28;20033;-60
2023/06/29 07:16:19;;;;;;;18.02;16.08;;;;;;;21.36;100.00;101301.16;5009115;28;20378;-61
2023/06/29 07:19:07;;;;;;;19.55;17.45;;;;;;;21.54;100.00;101297.53;5009134;28;20519;-61
2023/06/29 07:21:32;;;;;;;21.50;16.77;;;;;;;21.67;98.15;101300.06;5009381;28;20026;-60
2023/06/29 07:23:58;;;;;;;19.40;16.98;;;;;;;21.79;99.17;101297.34;5008250;28;20075;-60
2023/06/29 07:26:23;;;;;;;17.83;15.23;;;;;;;21.92;99.85;101297.28;5009076;28;20136;-60
2023/06/29 07:28:50;;;;;;;19.13;16.67;;;;;;;22.05;100.00;101304.22;5009737;28;20462;-60
2023/06/29 07:31:15;;;;;;;19.27;17.15;;;;;;;22.18;98.73;101301.47;5008510;28;20493;-60
2023/06/29 07:33:43;;;;;;;19.08;16.13;;;;;;;22.26;95.48;101306.66;5008756;28;20106;-61
2023/06/29 07:36:09;;;;;;;16.52;14.85;;;;;;;22.35;96.18;101305.69;5008959;28;20025;-61
2023/06/29 07:38:34;;;;;;;19.50;16.45;;;;;;;22.40;94.55;101299.47;5008178;28;20030;-61
2023/06/29 07:41:02;;;;;;;18.13;15.93;;;;;;;22.43;91.48;101298.56;5008838;28;20033;-59
2023/06/29 07:43:28;;;;;;;18.42;16.48;;;;;;;22.41;88.83;101298.56;5009449;28;20033;-61
2023/06/29 07:45:53;;;;;;;18.15;16.35;;;;;;;22.37;88.83;101290.69;5008614;28;20444;-60
2023/06/29 07:48:18;;;;;;;19.90;16.83;;;;;;;22.33;88.77;101302.16;5008470;28;20049;-61
2023/06/29 07:50:43;;;;;;;20.25;17.30;;;;;;;22.28;88.79;101296.94;5008708;28;20478;-60
2023/06/29 07:53:09;;;;;;;19.95;17.02;;;;;;;22.28;89.45;101303.13;4996232;28;20057;-61
2023/06/29 07:55:34;;;;;;;20.13;16.98;;;;;;;22.31;90.28;101291.63;5008514;28;20034;-59
2023/06/29 07:57:59;;;;;;;20.02;16.23;;;;;;;22.39;89.56;101294.22;5009031;28;20492;-61
2023/06/29 08:00:25;;;;;;;19.08;17.08;;;;;;;22.47;88.50;101295.00;5006816;28;20241;-61
2023/06/29 08:02:50;;;;;;;19.58;17.08;;;;;;;22.48;86.36;101293.22;5009118;28;20030;-61
2023/06/29 08:05:16;;;;;;;19.48;17.38;;;;;;;22.46;85.68;101287.97;5009297;28;20014;-59
2023/06/29 08:07:41;;;;;;;18.85;16.88;;;;;;;22.49;87.14;101292.31;5008321;28;20032;-61
2023/06/29 08:10:07;;;;;;;19.27;17.00;;;;;;;22.37;86.02;101295.97;5008373;28;20088;-61
2023/06/29 08:12:32;;;;;;;19.20;17.10;;;;;;;22.38;86.93;101297.75;5008346;28;20554;-61
2023/06/29 08:14:58;;;;;;;19.15;17.10;;;;;;;22.37;88.31;101290.69;5007903;28;20029;-60
2023/06/29 08:17:23;;;;;;;20.88;18.20;;;;;;;22.34;88.05;101283.72;5002034;28;20026;-61
2023/06/29 08:19:48;;;;;;;17.85;15.95;;;;;;;22.35;87.20;101281.91;5008638;28;20034;-61
2023/06/29 08:22:13;;;;;;;18.58;16.08;;;;;;;22.27;85.89;101280.22;5006350;28;20018;-60
2023/06/29 08:24:39;;;;;;;19.00;16.95;;;;;;;22.27;86.28;101285.50;5006824;28;20030;-61
2023/06/29 08:27:04;;;;;;;18.30;16.25;;;;;;;22.29;87.96;101283.72;5006678;28;20385;-61
2023/06/29 08:29:30;;;;;;;18.90;16.85;;;;;;;22.34;87.55;101285.47;5007025;28;20087;-61
2023/06/29 08:31:55;;;;;;;20.55;17.17;;;;;;;22.38;87.46;101284.56;5005351;28;20037;-61
2023/06/29 08:34:20;;;;;;;21.48;18.50;;;;;;;22.41;87.18;101295.06;5016920;28;20116;-60
2023/06/29 08:36:45;;;;;;;19.50;17.48;;;;;;;22.41;85.69;101292.44;5021675;28;20022;-61
2023/06/29 08:39:11;;;;;;;18.80;16.90;;;;;;;22.45;87.65;101295.91;5005522;28;20108;-61
2023/06/29 08:41:36;;;;;;;20.67;18.58;;;;;;;22.46;86.71;101295.00;5005267;28;20032;-61
2023/06/29 08:44:04;;;;;;;20.48;18.02;;;;;;;22.37;84.88;101286.31;5018172;28;20100;-61
2023/06/29 08:46:30;;;;;;;20.23;18.02;;;;;;;22.25;85.02;101282.00;5026306;28;20025;-61
2023/06/29 08:48:55;;;;;;;19.77;17.70;;;;;;;22.22;86.08;101284.69;5026749;28;20082;-61
2023/06/29 08:51:21;;;;;;;21.27;19.02;;;;;;;22.26;87.51;101289.06;5016350;28;20422;-61
2023/06/29 08:53:49;;;;;;;19.85;17.67;;;;;;;22.38;88.59;101284.56;5027261;28;20029;-61
2023/06/29 08:56:15;;;;;;;22.00;18.92;;;;;;;22.48;88.24;101285.31;5020773;28;20029;-59
2023/06/29 08:58:41;;;;;;;19.50;17.55;;;;;;;22.68;87.55;101279.84;5007856;28;20439;-60
2023/06/29 09:01:07;;;;;;;20.05;17.95;;;;;;;22.85;83.50;101276.97;5008006;28;20018;-60
2023/06/29 09:03:35;;;;;;;20.92;18.58;;;;;;;22.99;82.41;101276.78;5006505;28;20025;-61
2023/06/29 09:06:02;;;;;;;21.10;18.77;;;;;;;23.14;82.69;101277.50;5007800;28;20504;-61
2023/06/29 09:08:28;;;;;;;20.85;18.48;;;;;;;23.32;78.98;101275.47;5007829;28;20470;-61
2023/06/29 09:10:54;;;;;;;21.00;18.70;;;;;;;23.51;80.26;101271.69;5008319;28;20029;-61
2023/06/29 09:13:24;;;;;;;20.60;18.52;;;;;;;23.69;79.86;101269.63;5008800;28;20324;-61
2023/06/29 09:15:53;;;;;;;24.10;19.35;;;;;;;23.88;78.43;101264.06;5007496;28;20068;-60
2023/06/29 09:18:22;;;;;;;21.95;17.95;;;;;;;24.09;79.77;101267.19;5008565;28;20463;-60
2023/06/29 09:20:56;;;;;;;20.45;18.27;;;;;;;24.10;77.85;101267.19;5007382;28;20022;-60
2023/06/29 09:23:22;;;;;;;19.52;17.45;;;;;;;24.05;74.75;101269.03;5021897;28;20040;-60
2023/06/29 09:25:52;;;;;;;19.65;17.45;;;;;;;24.05;75.63;101270.81;5006605;28;20474;-61
2023/06/29 09:28:18;;;;;;;19.08;16.73;;;;;;;24.04;77.29;101269.06;5000617;28;20060;-61
2023/06/29 09:30:43;;;;;;;18.70;16.80;;;;;;;24.03;77.76;101267.34;5007198;28;20037;-61
2023/06/29 09:33:10;;;;;;;18.00;16.05;;;;;;;23.86;74.54;101265.84;5006937;28;20025;-61
2023/06/29 09:35:43;;;;;;;17.02;15.05;;;;;;;23.73;74.83;101270.47;5008677;28;20445;-60
2023/06/29 09:38:08;;;;;;;16.42;14.68;;;;;;;23.63;75.40;101269.75;5007128;28;20034;-61
2023/06/29 09:40:53;;;;;;;17.98;16.08;;;;;;;23.47;75.63;101275.28;5011031;28;20037;-61
2023/06/29 09:43:25;;;;;;;18.15;16.20;;;;;;;23.31;77.47;101273.75;5026742;28;20053;-61
2023/06/29 09:45:51;;;;;;;17.65;15.82;;;;;;;23.19;77.37;101270.38;5014146;28;20022;-61
2023/06/29 09:48:21;;;;;;;19.13;16.25;;;;;;;23.18;78.67;101271.28;5009162;28;20041;-61
2023/06/29 09:50:52;;;;;;;18.55;16.50;;;;;;;23.22;80.30;101274.75;5010209;28;20227;-61
2023/06/29 09:53:17;;;;;;;19.13;16.58;;;;;;;23.27;82.46;101271.16;5011942;28;20032;-61
2023/06/29 09:55:45;;;;;;;18.75;16.70;;;;;;;23.36;81.68;101277.19;5023858;28;20029;-60
2023/06/29 09:58:11;;;;;;;18.90;16.80;;;;;;;23.37;80.89;101273.63;5018708;28;20036;-60
2023/06/29 10:00:37;;;;;;;19.92;17.48;;;;;;;23.23;79.32;101272.06;5008478;28;20054;-61
2023/06/29 10:03:03;;;;;;;19.48;17.38;;;;;;;23.22;77.58;101278.28;5009659;28;20210;-61
2023/06/29 10:05:30;;;;;;;18.23;16.33;;;;;;;23.08;75.80;101282.88;5009946;28;20466;-61
2023/06/29 10:07:57;;;;;;;20.58;18.33;;;;;;;23.01;76.65;101277.66;5009920;28;20014;-60
2023/06/29 10:10:25;;;;;;;20.17;17.60;;;;;;;23.01;77.98;101276.78;5008561;28;20041;-59
2023/06/29 10:12:55;;;;;;;20.42;17.52;;;;;;;23.04;79.98;101276.75;5005642;28;20026;-61
2023/06/29 10:15:23;;;;;;;21.17;19.02;;;;;;;23.12;81.53;101272.22;5008216;28;20026;-61
2023/06/29 10:18:14;;;;;;;20.65;17.90;;;;;;;23.21;80.65;101276.50;5007761;28;20025;-62
2023/06/29 10:20:43;;;;;;;21.05;18.48;;;;;;;23.24;80.35;101268.53;4998564;28;20018;-61
2023/06/29 10:23:12;;;;;;;21.55;19.23;;;;;;;23.19;79.14;101280.09;4998306;28;20036;-60
2023/06/29 10:25:44;;;;;;;22.60;20.23;;;;;;;23.12;79.18;101279.28;5004434;28;20029;-61
2023/06/29 10:28:09;;;;;;;21.60;19.33;;;;;;;23.11;79.02;101275.78;5009277;28;20033;-61
2023/06/29 10:30:45;;;;;;;21.88;19.33;;;;;;;23.08;78.61;101277.59;5008783;28;20026;-61
2023/06/29 10:33:11;;;;;;;22.88;19.83;;;;;;;23.02;79.04;101268.84;5009264;28;20018;-60
2023/06/29 10:35:36;;;;;;;21.48;19.10;;;;;;;23.03;79.74;101275.88;5009417;28;20068;-61
2023/06/29 10:38:09;;;;;;;21.55;19.27;;;;;;;23.07;80.82;101278.47;5008548;28;20493;-60
2023/06/29 10:40:45;;;;;;;22.95;20.45;;;;;;;23.07;81.02;101273.19;5009294;28;20026;-60
2023/06/29 10:43:10;;;;;;;22.15;19.85;;;;;;;23.08;81.99;101283.72;5009326;28;20033;-61
2023/06/29 10:45:37;;;;;;;23.45;20.17;;;;;;;23.02;81.42;101274.13;5010201;28;20033;-61
2023/06/29 10:48:04;;;;;;;21.58;19.27;;;;;;;23.02;81.64;101282.06;5008824;28;20022;-61
2023/06/29 10:50:39;;;;;;;20.40;18.27;;;;;;;23.11;85.13;101280.19;5009190;28;20026;-60
2023/06/29 10:53:07;;;;;;;22.42;19.35;;;;;;;23.18;84.37;101268.63;5008679;28;20117;-62
2023/06/29 10:55:42;;;;;;;19.90;17.80;;;;;;;23.23;83.36;101268.56;5008518;28;20467;-61
2023/06/29 10:58:22;;;;;;;23.77;20.85;;;;;;;23.18;83.53;101273.91;5009214;28;20103;-61
2023/06/29 11:00:49;;;;;;;22.40;19.48;;;;;;;23.19;83.66;101264.22;5009055;28;20054;-61